createdAt,value
2016-08-17T00:00:58.907Z,1019.19
2016-08-17T00:01:58.926Z,1019.23
2016-08-17T00:02:58.942Z,1019.21
2016-08-17T00:03:58.967Z,1019.17
2016-08-17T00:04:58.989Z,1019.19
2016-08-17T00:05:59.003Z,1019.15
2016-08-17T00:06:59.020Z,1019.18
2016-08-17T00:07:59.044Z,1019.16
2016-08-17T00:08:59.062Z,1019.13
2016-08-17T00:09:59.082Z,1019.11
2016-08-17T00:10:59.107Z,1019.09
2016-08-17T00:11:59.118Z,1019.06
2016-08-17T00:12:59.137Z,1019.07
2016-08-17T00:13:59.160Z,1019.07
2016-08-17T00:14:59.186Z,1019.03
2016-08-17T00:15:59.201Z,1019.05
2016-08-17T00:16:59.217Z,1019.04
2016-08-17T00:17:59.237Z,1019.05
2016-08-17T00:18:59.254Z,1019.06
2016-08-17T00:19:59.273Z,1019.02
2016-08-17T00:20:59.294Z,1019.03
2016-08-17T00:21:59.314Z,1019.03
2016-08-17T00:22:59.334Z,1019.05
2016-08-17T00:23:59.354Z,1019.06
2016-08-17T00:24:59.379Z,1019.05
2016-08-17T00:25:59.387Z,1019.09
2016-08-17T00:26:59.412Z,1019.06
2016-08-17T00:27:59.426Z,1019.05
2016-08-17T00:28:59.460Z,1019.08
2016-08-17T00:29:59.465Z,1019.09
2016-08-17T00:30:59.485Z,1019.13
2016-08-17T00:31:59.508Z,1019.09
2016-08-17T00:32:59.528Z,1019.17
2016-08-17T00:33:59.540Z,1019.14
2016-08-17T00:34:59.564Z,1019.17
2016-08-17T00:35:59.586Z,1019.14
2016-08-17T00:36:59.604Z,1019.16
2016-08-17T00:37:59.624Z,1019.16
2016-08-17T00:38:59.644Z,1019.17
2016-08-17T00:39:59.664Z,1019.19
2016-08-17T00:40:59.681Z,1019.19
2016-08-17T00:41:59.694Z,1019.18
2016-08-17T00:42:59.716Z,1019.15
2016-08-17T00:43:59.733Z,1019.15
2016-08-17T00:44:59.760Z,1019.15
2016-08-17T00:45:59.772Z,1019.15
2016-08-17T00:46:59.794Z,1019.17
2016-08-17T00:47:59.811Z,1019.17
2016-08-17T00:48:59.836Z,1019.13
2016-08-17T00:49:59.853Z,1019.15
2016-08-17T00:50:59.874Z,1019.17
2016-08-17T00:51:59.889Z,1019.15
2016-08-17T00:52:59.910Z,1019.19
2016-08-17T00:53:59.932Z,1019.16
2016-08-17T00:54:59.944Z,1019.18
2016-08-17T00:55:59.962Z,1019.16
2016-08-17T00:56:59.981Z,1019.14
2016-08-17T00:58:00.052Z,1019.11
2016-08-17T00:59:00.021Z,1019.15
2016-08-17T01:00:00.047Z,1019.09
2016-08-17T01:01:00.061Z,1019.04
2016-08-17T01:02:00.076Z,1019.07
2016-08-17T01:03:00.101Z,1019.05
2016-08-17T01:04:00.111Z,1018.99
2016-08-17T01:05:00.140Z,1019.04
2016-08-17T01:06:00.152Z,1019
2016-08-17T01:07:00.176Z,1018.99
2016-08-17T01:08:00.243Z,1018.97
2016-08-17T01:09:00.262Z,1019
2016-08-17T01:10:00.232Z,1018.99
2016-08-17T01:11:00.247Z,1019
2016-08-17T01:12:00.264Z,1018.98
2016-08-17T01:13:00.287Z,1019.01
2016-08-17T01:14:00.302Z,1018.97
2016-08-17T01:15:00.325Z,1018.94
2016-08-17T01:16:00.343Z,1018.95
2016-08-17T01:17:00.362Z,1018.96
2016-08-17T01:18:00.376Z,1018.93
2016-08-17T01:19:00.402Z,1018.92
2016-08-17T01:20:00.495Z,1018.91
2016-08-17T01:21:00.445Z,1018.91
2016-08-17T01:22:00.461Z,1018.93
2016-08-17T01:23:00.473Z,1018.91
2016-08-17T01:24:00.490Z,1018.9
2016-08-17T01:25:00.511Z,1018.85
2016-08-17T01:26:00.538Z,1018.86
2016-08-17T01:27:00.552Z,1018.85
2016-08-17T01:28:00.573Z,1018.87
2016-08-17T01:29:00.595Z,1018.82
2016-08-17T01:30:00.604Z,1018.84
2016-08-17T01:31:00.625Z,1018.82
2016-08-17T01:32:00.641Z,1018.82
2016-08-17T01:33:00.667Z,1018.83
2016-08-17T01:34:00.682Z,1018.82
2016-08-17T01:35:00.749Z,1018.79
2016-08-17T01:36:00.720Z,1018.78
2016-08-17T01:37:00.744Z,1018.79
2016-08-17T01:38:00.752Z,1018.77
2016-08-17T01:39:00.776Z,1018.75
2016-08-17T01:40:00.794Z,1018.75
2016-08-17T01:41:00.822Z,1018.74
2016-08-17T01:42:00.833Z,1018.76
2016-08-17T01:43:00.852Z,1018.78
2016-08-17T01:44:00.872Z,1018.76
2016-08-17T01:45:00.892Z,1018.76
2016-08-17T01:46:00.903Z,1018.74
2016-08-17T01:47:00.925Z,1018.73
2016-08-17T01:48:00.942Z,1018.71
2016-08-17T01:49:00.962Z,1018.65
2016-08-17T01:50:00.983Z,1018.66
2016-08-17T01:51:01.002Z,1018.68
2016-08-17T01:52:01.016Z,1018.68
2016-08-17T01:53:01.040Z,1018.64
2016-08-17T01:54:01.059Z,1018.62
2016-08-17T01:55:01.083Z,1018.63
2016-08-17T01:56:01.091Z,1018.62
2016-08-17T01:57:01.113Z,1018.63
2016-08-17T01:58:01.134Z,1018.61
2016-08-17T01:59:01.147Z,1018.63
2016-08-17T02:00:01.166Z,1018.63
2016-08-17T02:01:01.186Z,1018.62
2016-08-17T02:02:01.213Z,1018.62
2016-08-17T02:03:01.224Z,1018.6
2016-08-17T02:04:01.238Z,1018.59
2016-08-17T02:05:01.262Z,1018.62
2016-08-17T02:06:01.281Z,1018.63
2016-08-17T02:07:01.302Z,1018.62
2016-08-17T02:08:01.321Z,1018.59
2016-08-17T02:09:01.332Z,1018.59
2016-08-17T02:10:01.351Z,1018.59
2016-08-17T02:11:01.370Z,1018.59
2016-08-17T02:12:01.393Z,1018.61
2016-08-17T02:13:01.412Z,1018.59
2016-08-17T02:14:01.436Z,1018.59
2016-08-17T02:15:01.451Z,1018.59
2016-08-17T02:16:01.462Z,1018.56
2016-08-17T02:17:01.483Z,1018.57
2016-08-17T02:18:01.502Z,1018.55
2016-08-17T02:19:01.523Z,1018.56
2016-08-17T02:20:01.542Z,1018.54
2016-08-17T02:21:01.558Z,1018.57
2016-08-17T02:22:01.574Z,1018.57
2016-08-17T02:23:01.594Z,1018.53
2016-08-17T02:24:01.612Z,1018.53
2016-08-17T02:25:01.633Z,1018.47
2016-08-17T02:26:01.645Z,1018.48
2016-08-17T02:27:01.673Z,1018.48
2016-08-17T02:28:01.693Z,1018.51
2016-08-17T02:29:01.703Z,1018.53
2016-08-17T02:30:01.724Z,1018.52
2016-08-17T02:31:01.741Z,1018.54
2016-08-17T02:32:01.759Z,1018.57
2016-08-17T02:33:01.781Z,1018.55
2016-08-17T02:34:01.795Z,1018.52
2016-08-17T02:35:01.808Z,1018.56
2016-08-17T02:36:01.831Z,1018.55
2016-08-17T02:37:01.849Z,1018.53
2016-08-17T02:38:01.872Z,1018.55
2016-08-17T02:39:01.893Z,1018.54
2016-08-17T02:40:02.000Z,1018.51
2016-08-17T02:41:01.923Z,1018.53
2016-08-17T02:42:01.937Z,1018.5
2016-08-17T02:43:01.958Z,1018.52
2016-08-17T02:44:01.982Z,1018.55
2016-08-17T02:45:02.000Z,1018.52
2016-08-17T02:46:02.012Z,1018.53
2016-08-17T02:47:02.033Z,1018.56
2016-08-17T02:48:02.051Z,1018.57
2016-08-17T02:49:02.071Z,1018.53
2016-08-17T02:50:02.089Z,1018.53
2016-08-17T02:51:02.108Z,1018.55
2016-08-17T02:52:02.122Z,1018.53
2016-08-17T02:53:02.164Z,1018.52
2016-08-17T02:54:02.158Z,1018.56
2016-08-17T02:55:02.183Z,1018.51
2016-08-17T02:56:02.197Z,1018.53
2016-08-17T02:57:02.223Z,1018.56
2016-08-17T02:58:02.231Z,1018.58
2016-08-17T02:59:02.252Z,1018.56
2016-08-17T03:00:02.272Z,1018.57
2016-08-17T03:01:02.293Z,1018.59
2016-08-17T03:02:02.307Z,1018.6
2016-08-17T03:03:02.325Z,1018.61
2016-08-17T03:04:02.342Z,1018.58
2016-08-17T03:05:02.364Z,1018.61
2016-08-17T03:06:02.414Z,1018.6
2016-08-17T03:07:02.398Z,1018.62
2016-08-17T03:08:02.463Z,1018.64
2016-08-17T03:09:02.439Z,1018.66
2016-08-17T03:10:02.454Z,1018.66
2016-08-17T03:11:02.472Z,1018.65
2016-08-17T03:12:02.490Z,1018.62
2016-08-17T03:13:02.506Z,1018.66
2016-08-17T03:14:02.537Z,1018.63
2016-08-17T03:15:02.547Z,1018.63
2016-08-17T03:16:02.563Z,1018.63
2016-08-17T03:17:02.646Z,1018.64
2016-08-17T03:18:02.603Z,1018.64
2016-08-17T03:19:02.619Z,1018.65
2016-08-17T03:20:02.644Z,1018.64
2016-08-17T03:21:02.652Z,1018.62
2016-08-17T03:22:02.671Z,1018.65
2016-08-17T03:23:02.692Z,1018.64
2016-08-17T03:24:02.712Z,1018.61
2016-08-17T03:25:02.725Z,1018.61
2016-08-17T03:26:02.741Z,1018.6
2016-08-17T03:27:02.763Z,1018.58
2016-08-17T03:28:02.783Z,1018.63
2016-08-17T03:29:02.814Z,1018.62
2016-08-17T03:30:02.814Z,1018.61
2016-08-17T03:31:02.841Z,1018.64
2016-08-17T03:32:02.863Z,1018.6
2016-08-17T03:33:02.872Z,1018.65
2016-08-17T03:34:02.892Z,1018.61
2016-08-17T03:35:02.917Z,1018.63
2016-08-17T03:36:02.929Z,1018.65
2016-08-17T03:37:02.943Z,1018.68
2016-08-17T03:38:02.962Z,1018.61
2016-08-17T03:39:02.978Z,1018.62
2016-08-17T03:40:03.002Z,1018.63
2016-08-17T03:41:03.024Z,1018.6
2016-08-17T03:42:03.040Z,1018.62
2016-08-17T03:43:03.056Z,1018.62
2016-08-17T03:44:03.081Z,1018.62
2016-08-17T03:45:03.095Z,1018.62
2016-08-17T03:46:03.115Z,1018.61
2016-08-17T03:47:03.134Z,1018.62
2016-08-17T03:48:03.153Z,1018.56
2016-08-17T03:49:03.173Z,1018.59
2016-08-17T03:50:03.189Z,1018.57
2016-08-17T03:51:03.203Z,1018.55
2016-08-17T03:52:03.223Z,1018.55
2016-08-17T03:53:03.238Z,1018.54
2016-08-17T03:54:03.263Z,1018.59
2016-08-17T03:55:03.272Z,1018.51
2016-08-17T03:56:03.291Z,1018.49
2016-08-17T03:57:03.312Z,1018.5
2016-08-17T03:58:03.330Z,1018.47
2016-08-17T03:59:03.349Z,1018.48
2016-08-17T04:00:03.369Z,1018.46
2016-08-17T04:01:03.382Z,1018.44
2016-08-17T04:02:03.414Z,1018.44
2016-08-17T04:03:03.423Z,1018.45
2016-08-17T04:04:03.443Z,1018.49
2016-08-17T04:05:03.457Z,1018.49
2016-08-17T04:06:03.480Z,1018.51
2016-08-17T04:07:03.498Z,1018.49
2016-08-17T04:08:03.561Z,1018.51
2016-08-17T04:09:03.531Z,1018.48
2016-08-17T04:10:03.552Z,1018.55
2016-08-17T04:11:03.572Z,1018.55
2016-08-17T04:12:03.593Z,1018.53
2016-08-17T04:13:03.603Z,1018.54
2016-08-17T04:14:03.621Z,1018.51
2016-08-17T04:15:03.642Z,1018.55
2016-08-17T04:16:03.662Z,1018.54
2016-08-17T04:17:03.676Z,1018.55
2016-08-17T04:18:03.697Z,1018.6
2016-08-17T04:19:03.720Z,1018.58
2016-08-17T04:20:03.742Z,1018.59
2016-08-17T04:21:03.753Z,1018.58
2016-08-17T04:22:03.782Z,1018.61
2016-08-17T04:23:03.803Z,1018.59
2016-08-17T04:24:03.813Z,1018.61
2016-08-17T04:25:03.831Z,1018.57
2016-08-17T04:26:03.851Z,1018.58
2016-08-17T04:27:03.864Z,1018.58
2016-08-17T04:28:03.884Z,1018.58
2016-08-17T04:29:03.901Z,1018.59
2016-08-17T04:30:03.921Z,1018.55
2016-08-17T04:31:03.941Z,1018.55
2016-08-17T04:32:03.963Z,1018.54
2016-08-17T04:33:03.978Z,1018.55
2016-08-17T04:34:03.992Z,1018.58
2016-08-17T04:35:04.018Z,1018.54
2016-08-17T04:36:04.034Z,1018.55
2016-08-17T04:37:04.063Z,1018.53
2016-08-17T04:38:04.064Z,1018.55
2016-08-17T04:39:04.094Z,1018.5
2016-08-17T04:40:04.107Z,1018.52
2016-08-17T04:41:04.123Z,1018.49
2016-08-17T04:42:04.141Z,1018.48
2016-08-17T04:43:04.165Z,1018.47
2016-08-17T04:44:04.179Z,1018.44
2016-08-17T04:45:04.199Z,1018.44
2016-08-17T04:46:04.211Z,1018.43
2016-08-17T04:47:04.238Z,1018.43
2016-08-17T04:48:04.253Z,1018.41
2016-08-17T04:49:04.273Z,1018.43
2016-08-17T04:50:04.311Z,1018.42
2016-08-17T04:51:04.310Z,1018.42
2016-08-17T04:52:04.327Z,1018.42
2016-08-17T04:53:04.353Z,1018.49
2016-08-17T04:54:04.362Z,1018.47
2016-08-17T04:55:04.381Z,1018.51
2016-08-17T04:56:04.400Z,1018.48
2016-08-17T04:57:04.433Z,1018.49
2016-08-17T04:58:04.440Z,1018.49
2016-08-17T04:59:04.456Z,1018.52
2016-08-17T05:00:04.481Z,1018.47
2016-08-17T05:01:04.497Z,1018.48
2016-08-17T05:02:04.514Z,1018.45
2016-08-17T05:03:04.545Z,1018.46
2016-08-17T05:04:04.548Z,1018.48
2016-08-17T05:05:04.582Z,1018.47
2016-08-17T05:06:04.592Z,1018.45
2016-08-17T05:07:04.602Z,1018.5
2016-08-17T05:08:04.627Z,1018.48
2016-08-17T05:09:04.643Z,1018.5
2016-08-17T05:10:04.673Z,1018.48
2016-08-17T05:11:04.678Z,1018.49
2016-08-17T05:12:04.698Z,1018.49
2016-08-17T05:13:04.733Z,1018.52
2016-08-17T05:14:04.735Z,1018.55
2016-08-17T05:15:04.752Z,1018.55
2016-08-17T05:16:04.778Z,1018.57
2016-08-17T05:17:04.801Z,1018.53
2016-08-17T05:18:04.814Z,1018.55
2016-08-17T05:19:04.833Z,1018.55
2016-08-17T05:20:04.853Z,1018.58
2016-08-17T05:21:04.869Z,1018.57
2016-08-17T05:22:04.891Z,1018.58
2016-08-17T05:23:04.907Z,1018.55
2016-08-17T05:24:04.931Z,1018.56
2016-08-17T05:25:04.950Z,1018.58
2016-08-17T05:26:04.968Z,1018.56
2016-08-17T05:27:04.982Z,1018.54
2016-08-17T05:28:04.998Z,1018.57
2016-08-17T05:29:05.025Z,1018.61
2016-08-17T05:30:05.042Z,1018.65
2016-08-17T05:31:05.061Z,1018.72
2016-08-17T05:32:05.081Z,1018.72
2016-08-17T05:33:05.097Z,1018.67
2016-08-17T05:34:05.127Z,1018.76
2016-08-17T05:35:05.152Z,1018.79
2016-08-17T05:36:05.160Z,1018.8
2016-08-17T05:37:05.183Z,1018.81
2016-08-17T05:38:05.203Z,1018.79
2016-08-17T05:39:05.222Z,1018.75
2016-08-17T05:40:05.242Z,1018.75
2016-08-17T05:41:05.265Z,1018.77
2016-08-17T05:42:05.289Z,1018.7
2016-08-17T05:43:05.312Z,1018.73
2016-08-17T05:44:05.338Z,1018.74
2016-08-17T05:45:05.358Z,1018.73
2016-08-17T05:46:05.388Z,1018.74
2016-08-17T05:47:05.402Z,1018.73
2016-08-17T05:48:05.438Z,1018.71
2016-08-17T05:49:05.464Z,1018.69
2016-08-17T05:50:05.482Z,1018.7
2016-08-17T05:51:05.504Z,1018.69
2016-08-17T05:52:05.534Z,1018.72
2016-08-17T05:53:05.555Z,1018.71
2016-08-17T05:54:05.584Z,1018.73
2016-08-17T05:55:05.605Z,1018.77
2016-08-17T05:56:05.634Z,1018.78
2016-08-17T05:57:05.662Z,1018.75
2016-08-17T05:58:05.694Z,1018.79
2016-08-17T05:59:05.714Z,1018.76
2016-08-17T06:00:05.743Z,1018.75
2016-08-17T06:01:05.774Z,1018.76
2016-08-17T06:02:05.819Z,1018.78
2016-08-17T06:03:05.820Z,1018.76
2016-08-17T06:04:05.848Z,1018.77
2016-08-17T06:05:05.872Z,1018.75
2016-08-17T06:06:05.903Z,1018.75
2016-08-17T06:07:05.937Z,1018.75
2016-08-17T06:08:05.963Z,1018.79
2016-08-17T06:09:05.994Z,1018.75
2016-08-17T06:10:06.014Z,1018.77
2016-08-17T06:11:06.047Z,1018.76
2016-08-17T06:12:06.067Z,1018.75
2016-08-17T06:13:06.101Z,1018.76
2016-08-17T06:14:06.123Z,1018.76
2016-08-17T06:15:06.154Z,1018.76
2016-08-17T06:16:06.185Z,1018.77
2016-08-17T06:17:06.215Z,1018.76
2016-08-17T06:18:06.240Z,1018.75
2016-08-17T06:19:06.275Z,1018.75
2016-08-17T06:20:06.302Z,1018.74
2016-08-17T06:21:06.323Z,1018.79
2016-08-17T06:22:06.357Z,1018.79
2016-08-17T06:23:06.384Z,1018.78
2016-08-17T06:24:06.424Z,1018.75
2016-08-17T06:25:06.443Z,1018.78
2016-08-17T06:26:06.470Z,1018.81
2016-08-17T06:27:06.500Z,1018.81
2016-08-17T06:28:06.525Z,1018.81
2016-08-17T06:29:06.557Z,1018.82
2016-08-17T06:30:06.585Z,1018.82
2016-08-17T06:31:06.635Z,1018.89
2016-08-17T06:32:06.643Z,1018.82
2016-08-17T06:33:06.683Z,1018.84
2016-08-17T06:34:06.703Z,1018.82
2016-08-17T06:35:06.834Z,1018.82
2016-08-17T06:36:06.769Z,1018.83
2016-08-17T06:37:06.795Z,1018.83
2016-08-17T06:38:06.824Z,1018.85
2016-08-17T06:39:06.860Z,1018.86
2016-08-17T06:40:06.894Z,1018.87
2016-08-17T06:41:06.923Z,1018.84
2016-08-17T06:42:06.948Z,1018.87
2016-08-17T06:43:06.985Z,1018.87
2016-08-17T06:44:07.010Z,1018.85
2016-08-17T06:45:07.042Z,1018.91
2016-08-17T06:46:07.070Z,1018.9
2016-08-17T06:47:07.104Z,1018.89
2016-08-17T06:48:07.137Z,1018.89
2016-08-17T06:49:07.166Z,1018.9
2016-08-17T06:50:07.200Z,1018.91
2016-08-17T06:51:07.230Z,1018.93
2016-08-17T06:52:07.263Z,1018.98
2016-08-17T06:53:07.298Z,1018.94
2016-08-17T06:54:07.329Z,1018.97
2016-08-17T06:55:07.361Z,1018.98
2016-08-17T06:56:07.392Z,1018.97
2016-08-17T06:57:07.422Z,1018.97
2016-08-17T06:58:07.457Z,1019.01
2016-08-17T06:59:07.489Z,1019
2016-08-17T07:00:07.523Z,1019.01
2016-08-17T07:01:07.555Z,1019
2016-08-17T07:02:07.584Z,1019
2016-08-17T07:03:07.618Z,1019.01
2016-08-17T07:04:07.651Z,1019
2016-08-17T07:05:07.683Z,1019.03
2016-08-17T07:06:07.714Z,1019.04
2016-08-17T07:07:07.744Z,1019.03
2016-08-17T07:08:07.777Z,1018.99
2016-08-17T07:09:07.825Z,1019
2016-08-17T07:10:07.843Z,1019
2016-08-17T07:11:07.882Z,1018.99
2016-08-17T07:12:07.908Z,1018.98
2016-08-17T07:13:07.940Z,1018.99
2016-08-17T07:14:07.974Z,1018.99
2016-08-17T07:15:08.004Z,1018.94
2016-08-17T07:16:08.038Z,1018.97
2016-08-17T07:17:08.072Z,1019.04
2016-08-17T07:18:08.102Z,1019.01
2016-08-17T07:19:08.139Z,1019.05
2016-08-17T07:20:08.341Z,1019.06
2016-08-17T07:21:08.205Z,1019.02
2016-08-17T07:22:08.287Z,1019.03
2016-08-17T07:23:08.274Z,1019.04
2016-08-17T07:24:08.302Z,1019.03
2016-08-17T07:25:08.331Z,1019.03
2016-08-17T07:26:08.363Z,1019.06
2016-08-17T07:27:08.405Z,1019.04
2016-08-17T07:28:08.433Z,1019.01
2016-08-17T07:29:08.474Z,1019.01
2016-08-17T07:30:08.499Z,1019.06
2016-08-17T07:31:08.594Z,1019.07
2016-08-17T07:32:08.563Z,1019.06
2016-08-17T07:33:08.605Z,1019.04
2016-08-17T07:34:08.633Z,1019.03
2016-08-17T07:35:08.664Z,1019.02
2016-08-17T07:36:08.696Z,1019.04
2016-08-17T07:37:08.735Z,1019.04
2016-08-17T07:38:08.763Z,1019.01
2016-08-17T07:39:08.795Z,1019.03
2016-08-17T07:40:08.830Z,1019.01
2016-08-17T07:41:08.865Z,1018.96
2016-08-17T07:42:08.901Z,1018.95
2016-08-17T07:43:08.933Z,1018.93
2016-08-17T07:44:08.966Z,1018.93
2016-08-17T07:45:08.994Z,1018.93
2016-08-17T07:46:09.031Z,1018.98
2016-08-17T07:47:09.062Z,1018.96
2016-08-17T07:48:09.103Z,1018.95
2016-08-17T07:49:09.138Z,1018.95
2016-08-17T07:50:09.164Z,1018.95
2016-08-17T07:51:09.194Z,1018.99
2016-08-17T07:52:09.236Z,1019
2016-08-17T07:53:09.263Z,1019.03
2016-08-17T07:54:09.298Z,1018.96
2016-08-17T07:55:09.334Z,1018.97
2016-08-17T07:56:09.372Z,1018.98
2016-08-17T07:57:09.406Z,1018.96
2016-08-17T07:58:09.425Z,1018.89
2016-08-17T07:59:09.466Z,1018.85
2016-08-17T08:00:09.493Z,1018.83
2016-08-17T08:01:09.524Z,1018.79
2016-08-17T08:02:09.561Z,1018.75
2016-08-17T08:03:09.585Z,1018.68
2016-08-17T08:04:09.627Z,1018.65
2016-08-17T08:05:09.660Z,1018.61
2016-08-17T08:06:09.698Z,1018.63
2016-08-17T08:07:09.715Z,1018.64
2016-08-17T08:08:09.748Z,1018.58
2016-08-17T08:09:09.782Z,1018.59
2016-08-17T08:10:09.814Z,1018.57
2016-08-17T08:11:09.845Z,1018.53
2016-08-17T08:12:09.872Z,1018.56
2016-08-17T08:13:09.904Z,1018.52
2016-08-17T08:14:09.945Z,1018.55
2016-08-17T08:15:09.963Z,1018.55
2016-08-17T08:16:10.085Z,1018.56
2016-08-17T08:17:10.012Z,1018.55
2016-08-17T08:18:10.152Z,1018.56
2016-08-17T08:19:10.077Z,1018.54
2016-08-17T08:20:10.112Z,1018.47
2016-08-17T08:21:10.133Z,1018.56
2016-08-17T08:22:10.154Z,1018.52
2016-08-17T08:23:10.193Z,1018.51
2016-08-17T08:24:10.209Z,1018.55
2016-08-17T08:25:10.233Z,1018.51
2016-08-17T08:26:10.263Z,1018.53
2016-08-17T08:27:10.295Z,1018.5
2016-08-17T08:28:10.309Z,1018.47
2016-08-17T08:29:10.342Z,1018.46
2016-08-17T08:30:10.360Z,1018.44
2016-08-17T08:31:10.393Z,1018.47
2016-08-17T08:32:10.574Z,1018.48
2016-08-17T08:33:10.588Z,1018.49
2016-08-17T08:34:10.571Z,1018.48
2016-08-17T08:35:10.591Z,1018.5
2016-08-17T08:36:10.573Z,1018.5
2016-08-17T08:37:10.623Z,1018.45
2016-08-17T08:38:10.816Z,1018.47
2016-08-17T08:39:10.843Z,1018.5
2016-08-17T08:40:10.819Z,1018.53
2016-08-17T08:41:10.650Z,1018.46
2016-08-17T08:42:10.823Z,1018.45
2016-08-17T08:43:10.693Z,1018.45
2016-08-17T08:44:10.771Z,1018.45
2016-08-17T08:45:10.743Z,1018.46
2016-08-17T08:46:10.866Z,1018.44
2016-08-17T08:47:10.788Z,1018.38
2016-08-17T08:48:10.817Z,1018.45
2016-08-17T08:49:10.842Z,1018.4
2016-08-17T08:50:10.875Z,1018.41
2016-08-17T08:51:10.941Z,1018.35
2016-08-17T08:52:10.920Z,1018.39
2016-08-17T08:53:10.943Z,1018.37
2016-08-17T08:54:10.962Z,1018.38
2016-08-17T08:55:10.987Z,1018.39
2016-08-17T08:56:11.012Z,1018.37
2016-08-17T08:57:11.042Z,1018.35
2016-08-17T08:58:11.056Z,1018.4
2016-08-17T08:59:11.092Z,1018.35
2016-08-17T09:00:11.111Z,1018.41
2016-08-17T09:01:11.140Z,1018.36
2016-08-17T09:02:11.162Z,1018.33
2016-08-17T09:03:11.191Z,1018.31
2016-08-17T09:04:11.210Z,1018.33
2016-08-17T09:05:11.235Z,1018.34
2016-08-17T09:06:11.263Z,1018.3
2016-08-17T09:07:11.284Z,1018.32
2016-08-17T09:08:11.356Z,1018.34
2016-08-17T09:09:11.327Z,1018.33
2016-08-17T09:10:11.364Z,1018.33
2016-08-17T09:11:11.383Z,1018.34
2016-08-17T09:12:11.407Z,1018.38
2016-08-17T09:13:11.431Z,1018.36
2016-08-17T09:14:11.452Z,1018.31
2016-08-17T09:15:11.485Z,1018.31
2016-08-17T09:16:11.502Z,1018.32
2016-08-17T09:17:11.524Z,1018.33
2016-08-17T09:18:11.554Z,1018.32
2016-08-17T09:19:11.571Z,1018.31
2016-08-17T09:20:11.595Z,1018.3
2016-08-17T09:21:11.622Z,1018.27
2016-08-17T09:22:11.642Z,1018.27
2016-08-17T09:23:11.672Z,1018.24
2016-08-17T09:24:11.692Z,1018.29
2016-08-17T09:25:11.722Z,1018.25
2016-08-17T09:26:11.744Z,1018.27
2016-08-17T09:27:11.772Z,1018.24
2016-08-17T09:28:11.789Z,1018.27
2016-08-17T09:29:11.823Z,1018.26
2016-08-17T09:30:11.844Z,1018.25
2016-08-17T09:31:11.868Z,1018.21
2016-08-17T09:32:11.885Z,1018.21
2016-08-17T09:33:11.912Z,1018.2
2016-08-17T09:34:11.932Z,1018.21
2016-08-17T09:35:11.964Z,1018.17
2016-08-17T09:36:11.986Z,1018.16
2016-08-17T09:37:12.013Z,1018.18
2016-08-17T09:38:12.044Z,1018.2
2016-08-17T09:39:12.062Z,1018.16
2016-08-17T09:40:12.085Z,1018.14
2016-08-17T09:41:12.113Z,1018.11
2016-08-17T09:42:12.132Z,1018.09
2016-08-17T09:43:12.151Z,1018.09
2016-08-17T09:44:12.183Z,1018.09
2016-08-17T09:45:12.204Z,1018.13
2016-08-17T09:46:12.230Z,1018.09
2016-08-17T09:47:12.254Z,1018.04
2016-08-17T09:48:12.330Z,1018.08
2016-08-17T09:49:12.313Z,1018.04
2016-08-17T09:50:12.333Z,1018.03
2016-08-17T09:51:12.353Z,1018.02
2016-08-17T09:52:12.378Z,1018.01
2016-08-17T09:53:12.396Z,1017.99
2016-08-17T09:54:12.431Z,1017.98
2016-08-17T09:55:12.450Z,1017.96
2016-08-17T09:56:12.481Z,1017.93
2016-08-17T09:57:12.501Z,1017.9
2016-08-17T09:58:12.524Z,1017.92
2016-08-17T09:59:12.549Z,1018.01
2016-08-17T10:00:12.572Z,1017.96
2016-08-17T10:01:12.605Z,1017.94
2016-08-17T10:02:12.618Z,1017.94
2016-08-17T10:03:12.642Z,1017.96
2016-08-17T10:04:12.670Z,1017.94
2016-08-17T10:05:12.699Z,1017.92
2016-08-17T10:06:12.723Z,1017.9
2016-08-17T10:07:12.744Z,1017.95
2016-08-17T10:08:12.924Z,1017.97
2016-08-17T10:09:12.790Z,1017.97
2016-08-17T10:10:12.814Z,1017.95
2016-08-17T10:11:12.846Z,1017.96
2016-08-17T10:12:12.873Z,1017.95
2016-08-17T10:13:12.892Z,1017.91
2016-08-17T10:14:12.923Z,1017.9
2016-08-17T10:15:12.944Z,1017.9
2016-08-17T10:16:12.963Z,1017.92
2016-08-17T10:17:12.992Z,1017.89
2016-08-17T10:18:13.013Z,1017.88
2016-08-17T10:19:13.042Z,1017.94
2016-08-17T10:20:13.063Z,1017.9
2016-08-17T10:21:13.087Z,1017.9
2016-08-17T10:22:13.114Z,1017.89
2016-08-17T10:23:13.143Z,1017.91
2016-08-17T10:24:13.164Z,1017.96
2016-08-17T10:25:13.185Z,1017.96
2016-08-17T10:26:13.212Z,1017.92
2016-08-17T10:27:13.239Z,1017.92
2016-08-17T10:28:13.264Z,1017.91
2016-08-17T10:29:13.282Z,1017.95
2016-08-17T10:30:13.316Z,1017.96
2016-08-17T10:31:13.345Z,1017.91
2016-08-17T10:32:13.361Z,1017.84
2016-08-17T10:33:13.394Z,1017.87
2016-08-17T10:34:13.419Z,1017.85
2016-08-17T10:35:13.432Z,1017.87
2016-08-17T10:36:13.464Z,1017.82
2016-08-17T10:37:13.484Z,1017.87
2016-08-17T10:38:13.503Z,1017.88
2016-08-17T10:39:13.530Z,1017.88
2016-08-17T10:40:13.560Z,1017.85
2016-08-17T10:41:13.593Z,1017.86
2016-08-17T10:42:13.610Z,1017.85
2016-08-17T10:43:13.633Z,1017.86
2016-08-17T10:44:13.652Z,1017.79
2016-08-17T10:45:13.684Z,1017.8
2016-08-17T10:46:13.706Z,1017.81
2016-08-17T10:47:13.727Z,1017.85
2016-08-17T10:48:13.754Z,1017.84
2016-08-17T10:49:13.783Z,1017.82
2016-08-17T10:50:13.803Z,1017.85
2016-08-17T10:51:13.832Z,1017.84
2016-08-17T10:52:13.852Z,1017.84
2016-08-17T10:53:13.883Z,1017.83
2016-08-17T10:54:13.902Z,1017.78
2016-08-17T10:55:13.931Z,1017.8
2016-08-17T10:56:13.967Z,1017.77
2016-08-17T10:57:13.979Z,1017.8
2016-08-17T10:58:14.003Z,1017.79
2016-08-17T10:59:14.025Z,1017.76
2016-08-17T11:00:14.052Z,1017.77
2016-08-17T11:01:14.075Z,1017.74
2016-08-17T11:02:14.100Z,1017.71
2016-08-17T11:03:14.128Z,1017.67
2016-08-17T11:04:14.150Z,1017.65
2016-08-17T11:05:14.273Z,1017.64
2016-08-17T11:06:14.196Z,1017.66
2016-08-17T11:07:14.224Z,1017.68
2016-08-17T11:08:14.245Z,1017.66
2016-08-17T11:09:14.272Z,1017.65
2016-08-17T11:10:14.293Z,1017.67
2016-08-17T11:11:14.324Z,1017.64
2016-08-17T11:12:14.351Z,1017.62
2016-08-17T11:13:14.371Z,1017.66
2016-08-17T11:14:14.399Z,1017.6
2016-08-17T11:15:14.426Z,1017.6
2016-08-17T11:16:14.477Z,1017.58
2016-08-17T11:17:14.471Z,1017.57
2016-08-17T11:18:14.497Z,1017.54
2016-08-17T11:19:14.520Z,1017.55
2016-08-17T11:20:14.552Z,1017.49
2016-08-17T11:21:14.569Z,1017.55
2016-08-17T11:22:14.598Z,1017.5
2016-08-17T11:23:14.624Z,1017.53
2016-08-17T11:24:14.641Z,1017.46
2016-08-17T11:25:14.673Z,1017.42
2016-08-17T11:26:14.694Z,1017.42
2016-08-17T11:27:14.770Z,1017.39
2016-08-17T11:28:14.742Z,1017.39
2016-08-17T11:29:14.768Z,1017.33
2016-08-17T11:30:14.790Z,1017.33
2016-08-17T11:31:14.818Z,1017.3
2016-08-17T11:32:14.844Z,1017.29
2016-08-17T11:33:14.864Z,1017.28
2016-08-17T11:34:14.892Z,1017.31
2016-08-17T11:35:14.915Z,1017.28
2016-08-17T11:36:14.939Z,1017.34
2016-08-17T11:37:14.970Z,1017.28
2016-08-17T11:38:14.989Z,1017.24
2016-08-17T11:39:15.014Z,1017.22
2016-08-17T11:40:15.042Z,1017.22
2016-08-17T11:41:15.063Z,1017.2
2016-08-17T11:42:15.092Z,1017.17
2016-08-17T11:43:15.123Z,1017.18
2016-08-17T11:44:15.143Z,1017.15
2016-08-17T11:45:15.161Z,1017.15
2016-08-17T11:46:15.186Z,1017.17
2016-08-17T11:47:15.209Z,1017.11
2016-08-17T11:48:15.238Z,1017.13
2016-08-17T11:49:15.261Z,1017.14
2016-08-17T11:50:15.292Z,1017.14
2016-08-17T11:51:15.313Z,1017.09
2016-08-17T11:52:15.343Z,1017.12
2016-08-17T11:53:15.368Z,1017.09
2016-08-17T11:54:15.391Z,1017.09
2016-08-17T11:55:15.411Z,1017.1
2016-08-17T11:56:15.444Z,1017.11
2016-08-17T11:57:15.460Z,1017.14
2016-08-17T11:58:15.489Z,1017.04
2016-08-17T11:59:15.510Z,1017.08
2016-08-17T12:00:15.536Z,1017.04
2016-08-17T12:01:15.560Z,1017.02
2016-08-17T12:02:15.584Z,1016.99
2016-08-17T12:03:15.608Z,1017.04
2016-08-17T12:04:15.642Z,1017.08
2016-08-17T12:05:15.663Z,1017.01
2016-08-17T12:06:15.681Z,1017.01
2016-08-17T12:07:15.712Z,1017.05
2016-08-17T12:08:15.782Z,1017.11
2016-08-17T12:09:15.762Z,1017.06